イエローナイフ空港の過去48時間の天気

イエローナイフ空港 (Yellowknife)

現在時刻: 8/18 08:40 MDT (8/18 14:40 UTC) 以下の時間は現地時間です。

過去48時間のMETAR気象情報
時間 風向 風速(m/s) 視程 気温(℃) 湿度(%) 気圧(hPa) 天気現象
18 08:00 南南東 9 10km以上 19 73 1012.2
18 07:00 南南東 7 10km以上 19 73 1012.9
18 06:00 南南東 7 10km以上 19 73 1013.4
18 05:00 南南東 7 10km以上 19 73 1013.8
18 04:00 南南東 6 10km以上 19 73 1014.5
18 03:00 南南東 6 10km以上 19 73 1014.9
18 02:00 南東 5 10km以上 18 77 1015.2
18 01:00 南南東 4 10km以上 17 83 1015.5
18 00:00 南東 4 10km以上 17 83 1015.6
17 23:00 南南東 4 10km以上 18 77 1016.1
17 22:00 南南東 4 10km以上 18 68 1016.6
17 21:00 4 10km以上 21 53 1016.6
17 20:00 4 10km以上 23 50 1016.8
17 19:00 6 10km以上 24 47 1016.9
17 18:00 6 10km以上 25 47 1017.2
17 17:00 南南東 5 10km以上 25 47 1017.4
17 16:00 南南西 4 10km以上 26 39 1017.3
17 15:00 2 10km以上 26 42 1017.7
17 14:00 西南西 2 10km以上 26 51 1017.5
17 13:00 西南西 2 10km以上 25 54 1017.3
17 12:00 西南西 2 10km以上 23 61 1017.3
17 11:00 西南西 3 10km以上 22 65 1017.6
17 10:00 不定 1 10km以上 20 73 1017.4
17 09:00 西 4 10km以上 19 83 1017.2
17 08:00 2 10km以上 17 94 1016.8
17 07:00 北北西 2 10km以上 16 94 1016.7
17 06:00 北西 3 10km以上 16 94 1016
17 05:00 西北西 2 10km以上 17 88 1015.3
17 04:08 北西 3 10km以上 16 100 1015 弱いしゅう雨
17 04:00 西北西 3 10km以上 16 100 1015
17 03:00 西北西 3 10km以上 17 94 1014.5
17 02:26 北西 3 10km以上 17 94 1014
17 02:00 北西 3 10km以上 17 94 1013.7 弱いしゅう雨
17 01:00 北西 2 10km以上 17 88 1013.4 弱いしゅう雨
17 00:00 西 5 10km以上 17 83 1013.3 弱いしゅう雨
16 23:00 北北西 3 10km以上 18 83 1012.9 弱いしゅう雨
16 22:27 北西 5 10km以上 18 83 1012.8 弱いしゅう雨
16 22:08 北西 7 10km以上 19 73 1012.2 弱い雷雨
16 21:51 北西 8 10km以上 20 68 1012.1
16 21:35 5 10km以上 21 60 1011.7
16 21:00 7 10km以上 21 60 1011.3
16 20:00 北東 3 10km以上 24 47 1010.6
16 19:00 北東 4 10km以上 25 47 1010
16 18:00 北北東 4 10km以上 27 39 1009.3
16 17:00 3 10km以上 27 39 1009.1
16 16:00 北北東 3 10km以上 26 45 1008.6
16 15:00 北北東 4 10km以上 25 50 1008.6
16 14:00 北北東 5 10km以上 25 50 1008.7
16 13:00 北北東 6 10km以上 25 50 1007.9
16 12:00 北北東 6 10km以上 24 57 1007.4
16 11:00 5 10km以上 23 61 1006.9
16 10:00 5 10km以上 22 69 1006.6
16 09:00 北北西 4 10km以上 20 78 1006.5
CYZF 181400Z 16017G24KT 15SM BKN240 19/14 A2987 RMK CI6 SLP122 DENSITY ALT 1400FT
CYZF 181300Z 16013KT 15SM BKN240 19/14 A2989 RMK CI6 SLP129 DENSITY ALT 1300FT
CYZF 181200Z 16013G19KT 15SM FEW240 19/14 A2991 RMK CI2 SLP134 DENSITY ALT 1300FT
CYZF 181100Z 15013KT 15SM FEW090 FEW240 19/14 A2992 RMK AC1CI1 AC TR SLP138 DENSITY ALT 1400FT
CYZF 181000Z 15012G18KT 15SM FEW240 19/14 A2994 RMK CI1 SLP145 DENSITY ALT 1300FT
CYZF 180900Z 15011KT 15SM FEW240 19/14 A2995 RMK CI1 SLP149 DENSITY ALT 1300FT
CYZF 180800Z 14010KT 15SM FEW240 18/14 A2996 RMK CI1 SLP152 DENSITY ALT 1200FT
CYZF 180700Z 16007KT 15SM FEW240 17/14 A2997 RMK CI1 SLP155 DENSITY ALT 1000FT
CYZF 180600Z 14007KT 15SM FEW240 17/14 A2997 RMK CI1 SLP156 DENSITY ALT 1100FT
CYZF 180500Z 16008KT 15SM FEW240 18/14 A2998 RMK CI1 SLP161 DENSITY ALT 1100FT
CYZF 180400Z 15007KT 15SM FEW240 18/12 A3000 RMK CI2 SLP166 DENSITY ALT 1100FT
CYZF 180300Z 17007KT 15SM FEW240 21/11 A3000 RMK CI2 SLP166 DENSITY ALT 1500FT
CYZF 180200Z 17008KT 15SM FEW050 FEW240 23/12 A3001 RMK SC1CI2 SC TR SLP168 DENSITY ALT 1700FT
CYZF 180100Z 17012KT 15SM FEW050 FEW240 24/12 A3001 RMK SC1CI2 SC TR SLP169 DENSITY ALT 1800FT
CYZF 180000Z 17011KT 15SM FEW050 SCT240 25/13 A3002 RMK SC1CI4 SC TR SLP172 DENSITY ALT 1900FT
CYZF 172300Z 16009KT 15SM FEW050 FEW240 25/13 A3002 RMK SC1CI2 SC TR SLP174 DENSITY ALT 1900FT
CYZF 172200Z 20008KT 180V270 15SM FEW050TCU SCT240 26/11 A3002 RMK TCU1CI2 SLP173 DENSITY ALT 2000FT
CYZF 172100Z 19004KT 170V270 15SM FEW050TCU SCT240 26/12 A3003 RMK TCU1CI2 SLP177 DENSITY ALT 2000FT
CYZF 172000Z 24004KT 170V340 15SM FEW050TCU FEW200 26/15 A3003 RMK TCU1CI1 CI TR SLP175 DENSITY ALT 2000FT
CYZF 171900Z 24003KT 180V290 15SM FEW050TCU 25/15 A3002 RMK TCU1 SLP173 DENSITY ALT 1900FT
CYZF 171800Z 25003KT 210V290 15SM FEW050 FEW130 23/15 A3002 RMK SC1AC1 SC TR AC TR SLP173 DENSITY ALT 1700FT
CYZF 171700Z 25006KT 200V270 15SM FEW050 FEW130 22/15 A3003 RMK SC1AC1 SC TR AC TR SLP176 DENSITY ALT 1500FT
CYZF 171600Z VRB02KT 15SM FEW050TCU FEW120 20/15 A3002 RMK TCU1AC1 AC TR SLP174 DENSITY ALT 1400FT
CYZF 171500Z 28007KT 15SM FEW050TCU SCT130 19/16 A3002 RMK TCU1AC2 SLP172 DENSITY ALT 1200FT
CYZF 171400Z 17004KT 15SM SCT050CB BKN130 17/16 A3001 RMK CB3AC2 SLP168 DENSITY ALT 1000FT
CYZF 171300Z 34003KT 15SM SCT080TCU BKN130 16/15 A3000 RMK TCU3AC3 SLP167 DENSITY ALT 900FT
CYZF 171200Z 31005KT 15SM BKN130 16/15 A2998 RMK AC5 SLP160 DENSITY ALT 1000FT
CYZF 171100Z 29004KT 15SM BKN110 17/15 A2996 RMK AC7 SLP153 DENSITY ALT 1000FT
CYZF 171008Z 31005KT 15SM -SHRA BKN110 16/16 A2995 RMK AC7 SLP150 DENSITY ALT 1000FT
CYZF 171000Z 29005KT 15SM BKN110 16/16 A2995 RMK AC7 SLP150 DENSITY ALT 1000FT
CYZF 170900Z 30006KT 15SM BKN110 17/16 A2994 RMK AC7 SLP145 DENSITY ALT 1100FT
CYZF 170826Z 32005KT 15SM BKN110 BKN160 17/16 A2992 RMK AC5AC2 SLP140 DENSITY ALT 1100FT
CYZF 170800Z 31005KT 15SM -SHRA FEW060 BKN110 OVC160 17/16 A2992 RMK CU1AC5AC2 SLP137 DENSITY ALT 1100FT
CYZF 170700Z CCA 31004KT 15SM -SHRA FEW060 BKN100 OVC160 17/15 A2991 RMK CU1AC4AC3 SLP134 DENSITY ALT 1100FT
CYZF 170600Z 28009G15KT 260V350 15SM -SHRA FEW060CB BKN100 BKN140 17/14 A2990 RMK CB1AC4AC2 PRESRR SLP133 DENSITY ALT 1200FT
CYZF 170500Z 34005KT 15SM -SHRA FEW060CB BKN100 18/15 A2989 RMK CB1AC6 SLP129 DENSITY ALT 1300FT
CYZF 170427Z 31010G17KT 15SM -SHRA BKN090CB BKN240 18/15 A2989 RMK CB7CI1 CI TR DIST TS SW SLP128 DENSITY ALT 1200FT
CYZF 170408Z 32014G21KT 15SM -TSRA BKN080CB BKN240 19/14 A2987 RMK CB7CI1 CI TR OCNL LGTCG SW SLP122 DENSITY ALT 1400FT
CYZF 170351Z 32016G23KT 15SM TS BKN060CB BKN240 20/14 A2987 RMK CB6CI1 CI TR WSHFT 0337 OCNL LGTCG SW - W SLP121 DENSITY ALT 1500FT
CYZF 170335Z CCA 36010G15KT 15SM TS BKN060CB BKN240 21/13 A2986 RMK CB5CI1 CI TR OCNL LGTCG W SLP117 DENSITY ALT 1600FT
CYZF 170300Z 01014G20KT 15SM SCT060TCU SCT110 SCT240 21/13 A2985 RMK TCU4AC1CI1 AC TR CI TR SLP113 DENSITY ALT 1700FT
CYZF 170200Z 04006KT 15SM FEW065CB BKN240 24/12 A2982 RMK CB2CI5 SLP106 DENSITY ALT 2100FT
CYZF 170100Z 04007KT 15SM FEW065TCU BKN240 25/13 A2981 RMK TCU1CI5 SLP100 DENSITY ALT 2200FT
CYZF 170000Z 03007KT 340V040 15SM FEW060TCU BKN240 27/12 A2979 RMK TCU2CI3 SLP093 DENSITY ALT 2400FT
CYZF 162300Z 36006G15KT 280V020 15SM FEW060TCU BKN240 27/12 A2978 RMK TCU2CI3 SLP091 DENSITY ALT 2400FT
CYZF 162200Z 03005KT 350V060 15SM SCT050TCU BKN240 26/13 A2977 RMK TCU3CI2 SLP086 DENSITY ALT 2300FT
CYZF 162100Z 03007G15KT 15SM SCT045TCU BKN240 25/14 A2977 RMK TCU4CI2 SLP086 DENSITY ALT 2300FT
CYZF 162000Z 03010KT 15SM SCT040TCU BKN230 25/14 A2977 RMK TCU3CI2 SLP087 DENSITY ALT 2200FT
CYZF 161900Z 02011KT 15SM FEW060TCU BKN190 25/14 A2975 RMK TCU2AC3 SLP079 DENSITY ALT 2200FT
CYZF 161800Z 03012KT 15SM FEW090TCU BKN190 24/15 A2973 RMK TCU1AC4 SLP074 DENSITY ALT 2100FT
CYZF 161700Z 35009KT 15SM FEW060TCU BKN190 23/15 A2972 RMK TCU1AC4 SLP069 DENSITY ALT 2100FT
CYZF 161600Z 36009KT 15SM FEW060TCU BKN180 22/16 A2971 RMK TCU1AC4 SLP066 DENSITY ALT 1900FT
CYZF 161500Z 34008KT 15SM FEW060TCU FEW090 BKN140 20/16 A2970 RMK TCU1AC1AC3 SLP065 DENSITY ALT 1700FT